sensor_id;sensor_type;location;lat;lon;timestamp;pressure;altitude;pressure_sealevel;temperature;humidity
69187;BME280;56301;56.864;60.554;2023-12-04T00:01:54;98952.97;;;28.79;28.66
69187;BME280;56301;56.864;60.554;2023-12-04T00:04:16;98950.88;;;28.81;28.72
69187;BME280;56301;56.864;60.554;2023-12-04T00:06:40;98951.91;;;28.87;28.19
69187;BME280;56301;56.864;60.554;2023-12-04T00:09:03;98956.97;;;28.90;28.62
69187;BME280;56301;56.864;60.554;2023-12-04T00:11:25;98963.47;;;28.89;28.38
69187;BME280;56301;56.864;60.554;2023-12-04T00:13:47;98944.19;;;28.90;28.96
69187;BME280;56301;56.864;60.554;2023-12-04T00:16:10;98933.28;;;28.90;28.24
69187;BME280;56301;56.864;60.554;2023-12-04T00:18:33;98931.63;;;28.89;28.34
69187;BME280;56301;56.864;60.554;2023-12-04T00:20:55;98926.59;;;28.93;28.08
69187;BME280;56301;56.864;60.554;2023-12-04T00:23:18;98925.13;;;28.97;28.32
69187;BME280;56301;56.864;60.554;2023-12-04T00:25:41;98924.50;;;28.95;28.01
69187;BME280;56301;56.864;60.554;2023-12-04T00:28:03;98932.66;;;28.88;27.99
69187;BME280;56301;56.864;60.554;2023-12-04T00:30:25;98935.59;;;28.80;28.98
69187;BME280;56301;56.864;60.554;2023-12-04T00:32:48;98930.13;;;28.73;28.84
69187;BME280;56301;56.864;60.554;2023-12-04T00:35:10;98926.56;;;28.66;28.33
69187;BME280;56301;56.864;60.554;2023-12-04T00:37:33;98927.16;;;28.55;28.38
69187;BME280;56301;56.864;60.554;2023-12-04T00:39:55;98932.56;;;28.48;29.13
69187;BME280;56301;56.864;60.554;2023-12-04T00:42:18;98931.06;;;28.39;28.60
69187;BME280;56301;56.864;60.554;2023-12-04T00:44:41;98923.47;;;28.35;28.00
69187;BME280;56301;56.864;60.554;2023-12-04T00:47:03;98927.66;;;28.30;28.66
69187;BME280;56301;56.864;60.554;2023-12-04T00:49:25;98909.00;;;28.27;28.83
69187;BME280;56301;56.864;60.554;2023-12-04T00:51:48;98923.84;;;28.25;28.66
69187;BME280;56301;56.864;60.554;2023-12-04T00:54:10;98936.41;;;28.19;29.52
69187;BME280;56301;56.864;60.554;2023-12-04T00:56:33;98940.16;;;28.18;28.98
69187;BME280;56301;56.864;60.554;2023-12-04T00:58:56;98939.72;;;28.15;28.05
69187;BME280;56301;56.864;60.554;2023-12-04T01:01:18;98949.97;;;28.13;28.88
69187;BME280;56301;56.864;60.554;2023-12-04T01:03:40;98943.88;;;28.04;28.31
69187;BME280;56301;56.864;60.554;2023-12-04T01:06:03;98946.94;;;27.94;28.83
69187;BME280;56301;56.864;60.554;2023-12-04T01:08:25;98946.28;;;27.92;29.70
69187;BME280;56301;56.864;60.554;2023-12-04T01:10:48;98944.81;;;27.90;28.81
69187;BME280;56301;56.864;60.554;2023-12-04T01:13:10;98933.69;;;27.84;28.46
69187;BME280;56301;56.864;60.554;2023-12-04T01:15:33;98939.53;;;27.81;28.63
69187;BME280;56301;56.864;60.554;2023-12-04T01:17:55;98938.50;;;27.82;28.50
69187;BME280;56301;56.864;60.554;2023-12-04T01:20:17;98945.56;;;27.77;28.55
69187;BME280;56301;56.864;60.554;2023-12-04T01:22:40;98951.38;;;27.74;29.90
69187;BME280;56301;56.864;60.554;2023-12-04T01:25:02;98948.34;;;27.83;30.50
69187;BME280;56301;56.864;60.554;2023-12-04T01:27:25;98950.00;;;27.84;31.01
69187;BME280;56301;56.864;60.554;2023-12-04T01:29:47;98957.97;;;27.86;31.96
69187;BME280;56301;56.864;60.554;2023-12-04T01:32:10;98951.50;;;27.87;31.21
69187;BME280;56301;56.864;60.554;2023-12-04T01:34:32;98953.38;;;27.87;32.79
69187;BME280;56301;56.864;60.554;2023-12-04T01:36:55;98956.94;;;27.87;33.04
69187;BME280;56301;56.864;60.554;2023-12-04T01:39:17;98948.56;;;27.82;30.78
69187;BME280;56301;56.864;60.554;2023-12-04T01:41:40;98954.47;;;27.64;30.15
69187;BME280;56301;56.864;60.554;2023-12-04T01:44:02;98953.97;;;27.54;29.27
69187;BME280;56301;56.864;60.554;2023-12-04T01:46:25;98957.28;;;27.49;28.47
69187;BME280;56301;56.864;60.554;2023-12-04T01:48:47;98948.47;;;27.47;28.38
69187;BME280;56301;56.864;60.554;2023-12-04T01:51:11;98936.72;;;27.40;28.22
69187;BME280;56301;56.864;60.554;2023-12-04T01:53:34;98934.00;;;27.40;27.78
69187;BME280;56301;56.864;60.554;2023-12-04T01:55:57;98925.38;;;27.36;28.22
69187;BME280;56301;56.864;60.554;2023-12-04T01:58:19;98926.00;;;27.32;27.02
69187;BME280;56301;56.864;60.554;2023-12-04T02:00:43;98922.00;;;27.28;27.75
69187;BME280;56301;56.864;60.554;2023-12-04T02:03:05;98909.41;;;27.27;26.81
69187;BME280;56301;56.864;60.554;2023-12-04T02:05:28;98904.19;;;27.25;25.91
69187;BME280;56301;56.864;60.554;2023-12-04T02:07:51;98896.88;;;27.26;25.75
69187;BME280;56301;56.864;60.554;2023-12-04T02:10:14;98915.66;;;27.21;26.06
69187;BME280;56301;56.864;60.554;2023-12-04T02:12:36;98917.94;;;27.17;26.68
69187;BME280;56301;56.864;60.554;2023-12-04T02:14:59;98919.81;;;27.17;25.92
69187;BME280;56301;56.864;60.554;2023-12-04T02:17:21;98917.28;;;27.15;26.45
69187;BME280;56301;56.864;60.554;2023-12-04T02:19:44;98927.09;;;27.16;25.87
69187;BME280;56301;56.864;60.554;2023-12-04T02:22:06;98917.19;;;27.08;26.61
69187;BME280;56301;56.864;60.554;2023-12-04T02:24:29;98897.31;;;27.08;25.73
69187;BME280;56301;56.864;60.554;2023-12-04T02:26:55;98892.50;;;27.03;26.00
69187;BME280;56301;56.864;60.554;2023-12-04T02:29:32;98889.13;;;27.01;25.04
69187;BME280;56301;56.864;60.554;2023-12-04T02:31:56;98896.25;;;27.02;25.36
69187;BME280;56301;56.864;60.554;2023-12-04T02:34:20;98889.31;;;27.00;25.76
69187;BME280;56301;56.864;60.554;2023-12-04T02:36:43;98889.91;;;26.95;25.07
69187;BME280;56301;56.864;60.554;2023-12-04T02:39:05;98882.78;;;26.94;24.24
69187;BME280;56301;56.864;60.554;2023-12-04T02:41:28;98889.47;;;26.92;25.75
69187;BME280;56301;56.864;60.554;2023-12-04T02:43:51;98883.22;;;26.91;25.94
69187;BME280;56301;56.864;60.554;2023-12-04T02:46:13;98874.00;;;26.92;26.29
69187;BME280;56301;56.864;60.554;2023-12-04T02:48:36;98862.09;;;26.93;26.07
69187;BME280;56301;56.864;60.554;2023-12-04T02:50:58;98870.00;;;26.88;26.06
69187;BME280;56301;56.864;60.554;2023-12-04T02:53:22;98880.44;;;26.84;25.59
69187;BME280;56301;56.864;60.554;2023-12-04T02:55:44;98887.06;;;26.82;25.96
69187;BME280;56301;56.864;60.554;2023-12-04T02:58:07;98872.66;;;26.81;26.23
69187;BME280;56301;56.864;60.554;2023-12-04T03:00:29;98870.16;;;26.80;25.77
69187;BME280;56301;56.864;60.554;2023-12-04T03:02:51;98870.34;;;26.78;26.04
69187;BME280;56301;56.864;60.554;2023-12-04T03:05:14;98869.63;;;26.70;26.32
69187;BME280;56301;56.864;60.554;2023-12-04T03:07:36;98854.19;;;26.70;26.53
69187;BME280;56301;56.864;60.554;2023-12-04T03:09:59;98849.59;;;26.71;26.55
69187;BME280;56301;56.864;60.554;2023-12-04T03:12:21;98852.06;;;26.66;26.22
69187;BME280;56301;56.864;60.554;2023-12-04T03:14:44;98840.16;;;26.67;26.37
69187;BME280;56301;56.864;60.554;2023-12-04T03:17:06;98842.03;;;26.66;25.78
69187;BME280;56301;56.864;60.554;2023-12-04T03:19:28;98844.31;;;26.62;26.66
69187;BME280;56301;56.864;60.554;2023-12-04T03:21:51;98828.03;;;26.62;25.93
69187;BME280;56301;56.864;60.554;2023-12-04T03:24:13;98833.63;;;26.61;26.00
69187;BME280;56301;56.864;60.554;2023-12-04T03:26:36;98818.59;;;26.58;26.54
69187;BME280;56301;56.864;60.554;2023-12-04T03:28:58;98804.38;;;26.56;26.48
69187;BME280;56301;56.864;60.554;2023-12-04T03:31:22;98818.59;;;26.58;26.97
69187;BME280;56301;56.864;60.554;2023-12-04T03:33:45;98802.69;;;26.55;26.36
69187;BME280;56301;56.864;60.554;2023-12-04T03:36:07;98808.13;;;26.55;27.65
69187;BME280;56301;56.864;60.554;2023-12-04T03:38:30;98798.94;;;26.56;27.24
69187;BME280;56301;56.864;60.554;2023-12-04T03:40:52;98794.72;;;26.54;26.40
69187;BME280;56301;56.864;60.554;2023-12-04T03:43:15;98789.31;;;26.54;27.10
69187;BME280;56301;56.864;60.554;2023-12-04T03:45:37;98799.72;;;26.50;26.11
69187;BME280;56301;56.864;60.554;2023-12-04T03:48:00;98793.28;;;26.51;26.15
69187;BME280;56301;56.864;60.554;2023-12-04T03:50:22;98781.75;;;26.49;26.05
69187;BME280;56301;56.864;60.554;2023-12-04T03:52:45;98782.13;;;26.46;26.33
69187;BME280;56301;56.864;60.554;2023-12-04T03:55:08;98788.59;;;26.45;26.70
69187;BME280;56301;56.864;60.554;2023-12-04T03:57:30;98773.34;;;26.44;27.17
69187;BME280;56301;56.864;60.554;2023-12-04T03:59:53;98755.13;;;26.38;26.91
69187;BME280;56301;56.864;60.554;2023-12-04T04:02:15;98754.72;;;26.41;26.26
69187;BME280;56301;56.864;60.554;2023-12-04T04:04:38;98742.78;;;26.35;26.13
69187;BME280;56301;56.864;60.554;2023-12-04T04:07:00;98735.75;;;26.41;25.86
69187;BME280;56301;56.864;60.554;2023-12-04T04:09:23;98715.47;;;26.37;26.32
69187;BME280;56301;56.864;60.554;2023-12-04T04:11:46;98724.00;;;26.34;25.92
69187;BME280;56301;56.864;60.554;2023-12-04T04:14:08;98726.88;;;26.32;26.53
69187;BME280;56301;56.864;60.554;2023-12-04T04:16:30;98716.91;;;26.33;26.73
69187;BME280;56301;56.864;60.554;2023-12-04T04:18:53;98712.31;;;26.33;26.15
69187;BME280;56301;56.864;60.554;2023-12-04T04:21:15;98703.50;;;26.31;26.65
69187;BME280;56301;56.864;60.554;2023-12-04T04:23:38;98703.34;;;26.33;25.94
69187;BME280;56301;56.864;60.554;2023-12-04T04:26:00;98708.09;;;26.31;26.24
69187;BME280;56301;56.864;60.554;2023-12-04T04:28:23;98685.81;;;26.35;25.67
69187;BME280;56301;56.864;60.554;2023-12-04T04:30:45;98688.72;;;26.34;25.80
69187;BME280;56301;56.864;60.554;2023-12-04T04:33:07;98684.91;;;26.28;25.74
69187;BME280;56301;56.864;60.554;2023-12-04T04:35:30;98687.63;;;26.28;25.82
69187;BME280;56301;56.864;60.554;2023-12-04T04:37:52;98682.84;;;26.30;26.51
69187;BME280;56301;56.864;60.554;2023-12-04T04:40:15;98684.75;;;26.30;25.82
69187;BME280;56301;56.864;60.554;2023-12-04T04:42:37;98692.22;;;26.28;26.08
69187;BME280;56301;56.864;60.554;2023-12-04T04:45:00;98689.72;;;26.26;26.07
69187;BME280;56301;56.864;60.554;2023-12-04T04:47:22;98681.38;;;26.28;25.67
69187;BME280;56301;56.864;60.554;2023-12-04T04:49:45;98679.69;;;26.27;26.23
69187;BME280;56301;56.864;60.554;2023-12-04T04:52:07;98665.69;;;26.23;25.54
69187;BME280;56301;56.864;60.554;2023-12-04T04:54:32;98669.69;;;26.27;25.72
69187;BME280;56301;56.864;60.554;2023-12-04T04:56:55;98659.66;;;26.28;26.05
69187;BME280;56301;56.864;60.554;2023-12-04T04:59:17;98652.97;;;26.24;25.46
69187;BME280;56301;56.864;60.554;2023-12-04T05:01:40;98644.16;;;26.22;25.54
69187;BME280;56301;56.864;60.554;2023-12-04T05:04:02;98644.16;;;26.22;26.17
69187;BME280;56301;56.864;60.554;2023-12-04T05:06:25;98637.72;;;26.23;25.46
69187;BME280;56301;56.864;60.554;2023-12-04T05:08:47;98624.19;;;26.23;26.09
69187;BME280;56301;56.864;60.554;2023-12-04T05:11:10;98629.59;;;26.23;25.69
69187;BME280;56301;56.864;60.554;2023-12-04T05:13:32;98610.78;;;26.21;25.70
69187;BME280;56301;56.864;60.554;2023-12-04T05:15:55;98604.53;;;26.21;26.31
69187;BME280;56301;56.864;60.554;2023-12-04T05:18:17;98578.25;;;26.21;26.19
69187;BME280;56301;56.864;60.554;2023-12-04T05:20:40;98569.09;;;26.22;25.25
69187;BME280;56301;56.864;60.554;2023-12-04T05:23:02;98577.41;;;26.21;25.65
69187;BME280;56301;56.864;60.554;2023-12-04T05:25:25;98579.25;;;26.13;26.15
69187;BME280;56301;56.864;60.554;2023-12-04T05:27:47;98595.34;;;26.15;26.01
69187;BME280;56301;56.864;60.554;2023-12-04T05:30:10;98580.06;;;26.14;25.70
69187;BME280;56301;56.864;60.554;2023-12-04T05:32:32;98566.50;;;26.14;26.04
69187;BME280;56301;56.864;60.554;2023-12-04T05:34:55;98561.09;;;26.14;25.62
69187;BME280;56301;56.864;60.554;2023-12-04T05:37:17;98558.59;;;26.12;26.13
69187;BME280;56301;56.864;60.554;2023-12-04T05:39:41;98545.69;;;26.14;25.51
69187;BME280;56301;56.864;60.554;2023-12-04T05:42:03;98547.34;;;26.15;25.18
69187;BME280;56301;56.864;60.554;2023-12-04T05:44:26;98550.25;;;26.14;25.23
69187;BME280;56301;56.864;60.554;2023-12-04T05:46:48;98526.88;;;26.13;25.99
69187;BME280;56301;56.864;60.554;2023-12-04T05:49:11;98507.72;;;26.14;25.31
69187;BME280;56301;56.864;60.554;2023-12-04T05:51:33;98486.44;;;26.11;25.17
69187;BME280;56301;56.864;60.554;2023-12-04T05:53:55;98486.03;;;26.14;25.19
69187;BME280;56301;56.864;60.554;2023-12-04T05:56:18;98489.97;;;26.12;26.04
69187;BME280;56301;56.864;60.554;2023-12-04T05:58:40;98467.22;;;26.13;26.15
69187;BME280;56301;56.864;60.554;2023-12-04T06:01:03;98447.41;;;26.12;25.87
69187;BME280;56301;56.864;60.554;2023-12-04T06:03:26;98432.38;;;26.10;25.24
69187;BME280;56301;56.864;60.554;2023-12-04T06:05:48;98415.09;;;26.11;25.76
69187;BME280;56301;56.864;60.554;2023-12-04T06:08:10;98427.16;;;26.08;25.57
69187;BME280;56301;56.864;60.554;2023-12-04T06:10:33;98435.91;;;26.10;26.00
69187;BME280;56301;56.864;60.554;2023-12-04T06:12:55;98439.50;;;26.11;25.58
69187;BME280;56301;56.864;60.554;2023-12-04T06:15:18;98431.78;;;26.14;25.31
69187;BME280;56301;56.864;60.554;2023-12-04T06:17:40;98430.09;;;26.13;25.26
69187;BME280;56301;56.864;60.554;2023-12-04T06:20:03;98426.78;;;26.11;25.39
69187;BME280;56301;56.864;60.554;2023-12-04T06:22:25;98435.53;;;26.13;25.81
69187;BME280;56301;56.864;60.554;2023-12-04T06:24:48;98439.28;;;26.12;25.24
69187;BME280;56301;56.864;60.554;2023-12-04T06:27:15;98443.44;;;26.08;25.43
69187;BME280;56301;56.864;60.554;2023-12-04T06:29:37;98432.19;;;26.11;25.91
69187;BME280;56301;56.864;60.554;2023-12-04T06:32:00;98441.34;;;26.10;25.12
69187;BME280;56301;56.864;60.554;2023-12-04T06:34:23;98434.06;;;26.11;26.07
69187;BME280;56301;56.864;60.554;2023-12-04T06:36:45;98430.94;;;26.07;25.14
69187;BME280;56301;56.864;60.554;2023-12-04T06:39:09;98432.59;;;26.08;25.01
69187;BME280;56301;56.864;60.554;2023-12-04T06:41:32;98423.41;;;26.09;25.51
69187;BME280;56301;56.864;60.554;2023-12-04T06:43:54;98401.72;;;26.09;25.92
69187;BME280;56301;56.864;60.554;2023-12-04T06:46:17;98400.06;;;26.08;25.20
69187;BME280;56301;56.864;60.554;2023-12-04T06:48:43;98414.66;;;26.07;25.18
69187;BME280;56301;56.864;60.554;2023-12-04T06:51:06;98409.03;;;26.09;25.30
69187;BME280;56301;56.864;60.554;2023-12-04T06:53:29;98390.88;;;26.09;25.20
69187;BME280;56301;56.864;60.554;2023-12-04T06:55:51;98393.78;;;26.08;25.79
69187;BME280;56301;56.864;60.554;2023-12-04T06:58:14;98410.69;;;26.10;25.00
69187;BME280;56301;56.864;60.554;2023-12-04T07:00:36;98397.97;;;26.10;26.05
69187;BME280;56301;56.864;60.554;2023-12-04T07:02:59;98391.53;;;26.11;25.65
69187;BME280;56301;56.864;60.554;2023-12-04T07:05:21;98375.66;;;26.08;25.91
69187;BME280;56301;56.864;60.554;2023-12-04T07:07:43;98360.00;;;26.10;25.47
69187;BME280;56301;56.864;60.554;2023-12-04T07:10:06;98346.66;;;26.09;25.62
69187;BME280;56301;56.864;60.554;2023-12-04T07:12:29;98337.88;;;26.07;25.19
69187;BME280;56301;56.864;60.554;2023-12-04T07:14:51;98327.91;;;26.07;25.33
69187;BME280;56301;56.864;60.554;2023-12-04T07:17:13;98329.56;;;26.08;25.50
69187;BME280;56301;56.864;60.554;2023-12-04T07:19:36;98317.06;;;26.07;25.00
69187;BME280;56301;56.864;60.554;2023-12-04T07:21:58;98299.53;;;26.10;25.73
69187;BME280;56301;56.864;60.554;2023-12-04T07:24:21;98274.50;;;26.08;25.09
69187;BME280;56301;56.864;60.554;2023-12-04T07:26:43;98262.81;;;26.07;25.44
69187;BME280;56301;56.864;60.554;2023-12-04T07:29:06;98266.16;;;26.09;25.76
69187;BME280;56301;56.864;60.554;2023-12-04T07:31:29;98271.97;;;26.06;26.02
69187;BME280;56301;56.864;60.554;2023-12-04T07:33:52;98274.25;;;26.03;25.88
69187;BME280;56301;56.864;60.554;2023-12-04T07:36:14;98252.38;;;26.04;25.14
69187;BME280;56301;56.864;60.554;2023-12-04T07:38:37;98260.94;;;26.08;25.33
69187;BME280;56301;56.864;60.554;2023-12-04T07:40:59;98261.78;;;26.08;25.72
69187;BME280;56301;56.864;60.554;2023-12-04T07:43:22;98259.06;;;26.08;24.90
69187;BME280;56301;56.864;60.554;2023-12-04T07:45:44;98251.97;;;26.07;25.52
69187;BME280;56301;56.864;60.554;2023-12-04T07:48:07;98236.97;;;26.11;25.36
69187;BME280;56301;56.864;60.554;2023-12-04T07:50:29;98212.78;;;26.16;25.65
69187;BME280;56301;56.864;60.554;2023-12-04T07:52:52;98203.81;;;26.16;24.75
69187;BME280;56301;56.864;60.554;2023-12-04T07:55:14;98212.78;;;26.16;25.37
69187;BME280;56301;56.864;60.554;2023-12-04T07:57:37;98203.59;;;26.17;24.56
69187;BME280;56301;56.864;60.554;2023-12-04T07:59:59;98195.88;;;26.14;25.52
69187;BME280;56301;56.864;60.554;2023-12-04T08:02:22;98175.03;;;26.15;25.46
69187;BME280;56301;56.864;60.554;2023-12-04T08:04:44;98173.75;;;26.17;25.66
69187;BME280;56301;56.864;60.554;2023-12-04T08:07:06;98162.72;;;26.12;25.33
69187;BME280;56301;56.864;60.554;2023-12-04T08:09:29;98150.19;;;26.18;26.12
69187;BME280;56301;56.864;60.554;2023-12-04T08:11:51;98120.16;;;26.13;25.96
69187;BME280;56301;56.864;60.554;2023-12-04T08:14:14;98117.66;;;26.11;26.10
69187;BME280;56301;56.864;60.554;2023-12-04T08:16:36;98117.66;;;26.11;25.68
69187;BME280;56301;56.864;60.554;2023-12-04T08:18:59;98108.91;;;26.09;25.40
69187;BME280;56301;56.864;60.554;2023-12-04T08:21:21;98086.38;;;26.09;26.14
69187;BME280;56301;56.864;60.554;2023-12-04T08:23:44;98078.47;;;26.07;25.54
69187;BME280;56301;56.864;60.554;2023-12-04T08:26:06;98088.47;;;26.13;24.99
69187;BME280;56301;56.864;60.554;2023-12-04T08:28:29;98075.13;;;26.12;26.00
69187;BME280;56301;56.864;60.554;2023-12-04T08:30:51;98063.03;;;26.08;26.26
69187;BME280;56301;56.864;60.554;2023-12-04T08:33:14;98056.56;;;26.09;26.00
69187;BME280;56301;56.864;60.554;2023-12-04T08:35:36;98058.44;;;26.08;26.35
69187;BME280;56301;56.864;60.554;2023-12-04T08:37:59;98066.16;;;26.11;25.60
69187;BME280;56301;56.864;60.554;2023-12-04T08:40:21;98060.09;;;26.09;26.09
69187;BME280;56301;56.864;60.554;2023-12-04T08:42:43;98051.78;;;26.04;25.78
69187;BME280;56301;56.864;60.554;2023-12-04T08:45:06;98054.06;;;26.07;25.67
69187;BME280;56301;56.864;60.554;2023-12-04T08:47:28;98049.66;;;26.06;25.97
69187;BME280;56301;56.864;60.554;2023-12-04T08:49:51;98026.75;;;26.02;25.49
69187;BME280;56301;56.864;60.554;2023-12-04T08:52:14;98014.66;;;26.05;25.29
69187;BME280;56301;56.864;60.554;2023-12-04T08:54:39;98012.13;;;26.03;25.20
69187;BME280;56301;56.864;60.554;2023-12-04T08:57:02;98002.97;;;26.04;24.99
69187;BME280;56301;56.864;60.554;2023-12-04T08:59:24;98019.25;;;26.04;25.28
69187;BME280;56301;56.864;60.554;2023-12-04T09:01:47;98004.41;;;26.07;25.92
69187;BME280;56301;56.864;60.554;2023-12-04T09:04:09;97981.06;;;26.06;25.73
69187;BME280;56301;56.864;60.554;2023-12-04T09:06:32;97971.88;;;26.07;25.72
69187;BME280;56301;56.864;60.554;2023-12-04T09:08:54;97970.44;;;26.04;25.00
69187;BME280;56301;56.864;60.554;2023-12-04T09:11:16;97967.50;;;26.06;25.23
69187;BME280;56301;56.864;60.554;2023-12-04T09:13:39;97974.19;;;26.03;25.89
69187;BME280;56301;56.864;60.554;2023-12-04T09:16:01;97950.84;;;26.02;25.04
69187;BME280;56301;56.864;60.554;2023-12-04T09:18:24;97919.97;;;26.03;25.06
69187;BME280;56301;56.864;60.554;2023-12-04T09:20:46;97916.22;;;26.04;25.94
69187;BME280;56301;56.864;60.554;2023-12-04T09:23:09;97923.31;;;26.05;24.76
69187;BME280;56301;56.864;60.554;2023-12-04T09:25:31;97916.66;;;26.01;25.75
69187;BME280;56301;56.864;60.554;2023-12-04T09:27:54;97919.97;;;26.03;25.10
69187;BME280;56301;56.864;60.554;2023-12-04T09:30:16;97910.81;;;25.98;25.61
69187;BME280;56301;56.864;60.554;2023-12-04T09:32:39;97918.72;;;25.99;25.53
69187;BME280;56301;56.864;60.554;2023-12-04T09:35:02;97901.44;;;26.00;25.13
69187;BME280;56301;56.864;60.554;2023-12-04T09:37:24;97874.94;;;26.02;25.63
69187;BME280;56301;56.864;60.554;2023-12-04T09:39:47;97869.94;;;25.99;25.15
69187;BME280;56301;56.864;60.554;2023-12-04T09:42:12;97877.03;;;26.00;25.49
69187;BME280;56301;56.864;60.554;2023-12-04T09:44:36;97885.19;;;26.00;24.88
69187;BME280;56301;56.864;60.554;2023-12-04T09:46:59;97877.47;;;25.97;25.44
69187;BME280;56301;56.864;60.554;2023-12-04T09:49:22;97857.66;;;25.97;25.25
69187;BME280;56301;56.864;60.554;2023-12-04T09:51:45;97836.56;;;25.99;25.21
69187;BME280;56301;56.864;60.554;2023-12-04T09:54:07;97830.56;;;25.97;24.60
69187;BME280;56301;56.864;60.554;2023-12-04T09:56:32;97848.66;;;25.96;24.78
69187;BME280;56301;56.864;60.554;2023-12-04T09:58:58;97839.50;;;25.97;24.48
69187;BME280;56301;56.864;60.554;2023-12-04T10:01:21;97820.53;;;25.97;24.38
69187;BME280;56301;56.864;60.554;2023-12-04T10:03:44;97827.00;;;25.96;25.22
69187;BME280;56301;56.864;60.554;2023-12-04T10:06:07;97840.13;;;25.99;25.06
69187;BME280;56301;56.864;60.554;2023-12-04T10:08:30;97831.38;;;25.97;24.79
69187;BME280;56301;56.864;60.554;2023-12-04T10:10:52;97824.91;;;25.98;24.40
69187;BME280;56301;56.864;60.554;2023-12-04T10:13:15;97814.69;;;26.00;25.21
69187;BME280;56301;56.864;60.554;2023-12-04T10:15:47;97810.31;;;25.99;24.95
69187;BME280;56301;56.864;60.554;2023-12-04T10:18:18;97801.16;;;26.00;24.81
69187;BME280;56301;56.864;60.554;2023-12-04T10:20:54;97791.31;;;25.99;24.87
69187;BME280;56301;56.864;60.554;2023-12-04T10:23:17;97761.75;;;25.98;25.04
69187;BME280;56301;56.864;60.554;2023-12-04T10:25:39;97761.50;;;25.99;24.45
69187;BME280;56301;56.864;60.554;2023-12-04T10:28:12;97759.22;;;25.96;24.96
69187;BME280;56301;56.864;60.554;2023-12-04T10:30:34;97773.84;;;25.95;24.49
69187;BME280;56301;56.864;60.554;2023-12-04T10:32:58;97770.94;;;25.90;24.66
69187;BME280;56301;56.864;60.554;2023-12-04T10:35:20;97776.53;;;25.95;25.09
69187;BME280;56301;56.864;60.554;2023-12-04T10:37:43;97771.56;;;25.92;24.36
69187;BME280;56301;56.864;60.554;2023-12-04T10:40:05;97766.13;;;25.92;24.93
69187;BME280;56301;56.864;60.554;2023-12-04T10:42:29;97756.50;;;25.96;24.98
69187;BME280;56301;56.864;60.554;2023-12-04T10:44:51;97763.22;;;25.93;24.80
69187;BME280;56301;56.864;60.554;2023-12-04T10:47:14;97746.13;;;25.93;24.58
69187;BME280;56301;56.864;60.554;2023-12-04T10:49:38;97738.63;;;25.88;24.47
69187;BME280;56301;56.864;60.554;2023-12-04T10:52:01;97738.44;;;25.90;24.46
69187;BME280;56301;56.864;60.554;2023-12-04T10:54:24;97733.59;;;25.92;25.14
69187;BME280;56301;56.864;60.554;2023-12-04T10:56:46;97721.13;;;25.91;24.20
69187;BME280;56301;56.864;60.554;2023-12-04T10:59:11;97717.78;;;25.89;24.45
69187;BME280;56301;56.864;60.554;2023-12-04T11:01:33;97706.94;;;25.89;24.37
69187;BME280;56301;56.864;60.554;2023-12-04T11:03:56;97715.69;;;25.91;24.50
69187;BME280;56301;56.864;60.554;2023-12-04T11:06:21;97698.59;;;25.90;24.41
69187;BME280;56301;56.864;60.554;2023-12-04T11:08:44;97704.84;;;25.91;24.66
69187;BME280;56301;56.864;60.554;2023-12-04T11:11:11;97681.53;;;25.90;24.40
69187;BME280;56301;56.864;60.554;2023-12-04T11:13:36;97654.84;;;25.87;24.32
69187;BME280;56301;56.864;60.554;2023-12-04T11:16:06;97656.94;;;25.85;24.10
69187;BME280;56301;56.864;60.554;2023-12-04T11:18:30;97655.44;;;25.89;24.96
69187;BME280;56301;56.864;60.554;2023-12-04T11:20:55;97654.84;;;25.87;25.15
69187;BME280;56301;56.864;60.554;2023-12-04T11:23:18;97684.44;;;25.88;24.07
69187;BME280;56301;56.864;60.554;2023-12-04T11:25:41;97673.38;;;25.90;24.47
69187;BME280;56301;56.864;60.554;2023-12-04T11:28:04;97672.34;;;25.91;24.50
69187;BME280;56301;56.864;60.554;2023-12-04T11:30:27;97663.16;;;25.92;24.58
69187;BME280;56301;56.864;60.554;2023-12-04T11:32:50;97656.69;;;25.93;24.69
69187;BME280;56301;56.864;60.554;2023-12-04T11:35:14;97658.53;;;25.92;24.55
69187;BME280;56301;56.864;60.554;2023-12-04T11:37:37;97653.34;;;25.91;24.37
69187;BME280;56301;56.864;60.554;2023-12-04T11:40:02;97640.88;;;25.90;24.92
69187;BME280;56301;56.864;60.554;2023-12-04T11:42:25;97611.06;;;25.90;24.74
69187;BME280;56301;56.864;60.554;2023-12-04T11:44:48;97616.88;;;25.93;24.88
69187;BME280;56301;56.864;60.554;2023-12-04T11:47:10;97630.63;;;25.92;24.74
69187;BME280;56301;56.864;60.554;2023-12-04T11:49:33;97640.19;;;25.95;24.54
69187;BME280;56301;56.864;60.554;2023-12-04T11:51:56;97655.22;;;25.97;24.68
69187;BME280;56301;56.864;60.554;2023-12-04T11:54:19;97669.78;;;25.96;25.11
69187;BME280;56301;56.864;60.554;2023-12-04T11:59:20;97657.69;;;25.99;24.97
69187;BME280;56301;56.864;60.554;2023-12-04T12:01:42;97663.94;;;25.99;24.48
69187;BME280;56301;56.864;60.554;2023-12-04T12:04:05;97663.94;;;25.99;24.64
69187;BME280;56301;56.864;60.554;2023-12-04T12:06:28;97674.78;;;25.99;25.01
69187;BME280;56301;56.864;60.554;2023-12-04T12:08:50;97669.16;;;26.01;24.59
69187;BME280;56301;56.864;60.554;2023-12-04T12:11:13;97661.22;;;25.99;24.58
69187;BME280;56301;56.864;60.554;2023-12-04T12:13:35;97657.47;;;26.00;24.53
69187;BME280;56301;56.864;60.554;2023-12-04T12:15:58;97645.78;;;26.00;24.87
69187;BME280;56301;56.864;60.554;2023-12-04T12:18:21;97622.69;;;25.97;24.65
69187;BME280;56301;56.864;60.554;2023-12-04T12:20:44;97609.53;;;26.01;24.95
69187;BME280;56301;56.864;60.554;2023-12-04T12:23:06;97596.78;;;26.01;24.72
69187;BME280;56301;56.864;60.554;2023-12-04T12:25:28;97592.19;;;26.02;25.02
69187;BME280;56301;56.864;60.554;2023-12-04T12:27:51;97588.88;;;26.00;24.64
69187;BME280;56301;56.864;60.554;2023-12-04T12:30:13;97584.31;;;26.00;24.47